Zuni Pueblo, New Mexico
Current Conditions -  °F | °C
As of 3:53 PM on Tuesday 21 Oct 2014 (Local Time) from KGUP Reporting Station
Clear Clear  
Wind Chill: 66°   Ceiling: Unl
Heat Index: 66°   Visibility: 10mi
Dew Point: 39°   Wind: 0mph
Humidity: 37%   Direction: NA
Pressure: 30.08"   Gusts: NA
Location:  35.0898°N, 108.763°W
Report Text: KGUP 212153Z AUTO 00000KT 10SM CLR 19/04 A3008 RMK AO2 SLP097 T01890039
Loading
Personal Weather Stations






























Interactive Weather Map New forecast layout! Learn more

10-Day Weather Forecast

Advertisements
Track Severe Weather on mobile